createdAt,value
2022-11-24T00:01:40.193Z,100185.25
2022-11-24T00:04:10.661Z,100199.75
2022-11-24T00:06:40.649Z,100184.00
2022-11-24T00:09:14.078Z,100184.41
2022-11-24T00:11:44.057Z,100187.03
2022-11-24T00:14:16.100Z,100190.50
2022-11-24T00:16:46.164Z,100186.63
2022-11-24T00:19:19.743Z,100192.84
2022-11-24T00:21:50.378Z,100194.94
2022-11-24T00:24:23.099Z,100192.31
2022-11-24T00:26:53.086Z,100186.34
2022-11-24T00:29:23.120Z,100191.88
2022-11-24T00:31:53.101Z,100185.38
2022-11-24T00:34:23.284Z,100194.50
2022-11-24T00:36:53.333Z,100194.38
2022-11-24T00:39:26.024Z,100194.78
2022-11-24T00:41:56.004Z,100190.91
2022-11-24T00:44:25.992Z,100192.44
2022-11-24T00:46:56.088Z,100190.22
2022-11-24T00:49:26.304Z,100190.63
2022-11-24T00:51:56.400Z,100188.84
2022-11-24T00:54:29.062Z,100196.03
2022-11-24T00:56:59.087Z,100191.47
2022-11-24T00:59:29.076Z,100195.34
2022-11-24T01:01:59.255Z,100191.47
2022-11-24T01:04:29.675Z,100196.72
2022-11-24T01:06:59.649Z,100201.44
2022-11-24T01:09:32.327Z,100193.69
2022-11-24T01:12:05.202Z,100200.41
2022-11-24T01:14:36.079Z,100193.50
2022-11-24T01:17:06.588Z,100188.00
2022-11-24T01:19:36.802Z,100190.09
2022-11-24T01:22:06.992Z,100187.19
2022-11-24T01:24:39.611Z,100200.59
2022-11-24T01:27:10.349Z,100206.53
2022-11-24T01:29:40.412Z,100206.13
2022-11-24T01:32:10.570Z,100208.06
2022-11-24T01:34:40.513Z,100203.09
2022-11-24T01:37:10.676Z,100197.41
2022-11-24T01:39:44.184Z,100197.28
2022-11-24T01:42:14.410Z,100205.31
2022-11-24T01:44:45.187Z,100200.59
2022-11-24T01:47:32.520Z,100210.56
2022-11-24T01:50:05.687Z,100218.50
2022-11-24T01:52:40.022Z,100208.81
2022-11-24T01:55:16.921Z,100216.88
2022-11-24T01:57:51.525Z,100214.56
2022-11-24T02:00:21.899Z,100207.75
2022-11-24T02:02:52.762Z,100202.63
2022-11-24T02:05:27.096Z,100197.09
2022-11-24T02:08:00.303Z,100197.81
2022-11-24T02:10:33.210Z,100198.94
2022-11-24T02:13:03.536Z,100207.38
2022-11-24T02:15:35.310Z,100201.56
2022-11-24T02:18:05.865Z,100210.28
2022-11-24T02:20:36.723Z,100221.06
2022-11-24T02:23:14.004Z,100223.28
2022-11-24T02:25:54.675Z,100249.00
2022-11-24T02:28:31.058Z,100246.25
2022-11-24T02:31:02.715Z,100243.47
2022-11-24T02:33:33.235Z,100249.50
2022-11-24T02:36:03.287Z,100240.44
2022-11-24T02:38:34.639Z,100257.41
2022-11-24T02:41:08.917Z,100252.09
2022-11-24T02:43:45.545Z,100245.88
2022-11-24T02:46:15.635Z,100250.06
2022-11-24T02:48:45.671Z,100252.63
2022-11-24T02:51:15.773Z,100245.88
2022-11-24T02:53:45.886Z,100251.53
2022-11-24T02:56:16.250Z,100253.50
2022-11-24T02:58:48.813Z,100252.25
2022-11-24T03:01:19.035Z,100264.84
2022-11-24T03:03:49.193Z,100260.69
2022-11-24T03:06:19.688Z,100256.63
2022-11-24T03:08:49.881Z,100254.59
2022-11-24T03:11:19.842Z,100252.97
2022-11-24T03:13:52.518Z,100250.16
2022-11-24T03:16:22.645Z,100245.72
2022-11-24T03:18:53.855Z,100253.91
2022-11-24T03:21:23.899Z,100249.50
2022-11-24T03:23:55.184Z,100246.34
2022-11-24T03:26:27.346Z,100245.63
2022-11-24T03:29:00.404Z,100239.16
2022-11-24T03:31:30.542Z,100226.09
2022-11-24T03:34:00.588Z,100227.34
2022-11-24T03:36:30.617Z,100234.94
2022-11-24T03:39:00.644Z,100228.03
2022-11-24T03:41:30.626Z,100239.38
2022-11-24T03:44:03.452Z,100258.06
2022-11-24T03:46:33.663Z,100270.63
2022-11-24T03:49:03.883Z,100259.41
2022-11-24T03:51:33.981Z,100269.63
2022-11-24T03:54:04.173Z,100263.00
2022-11-24T03:56:34.130Z,100272.53
2022-11-24T03:59:06.769Z,100272.22
2022-11-24T04:01:37.197Z,100278.78
2022-11-24T04:04:07.624Z,100279.13
2022-11-24T04:06:37.690Z,100283.31
2022-11-24T04:09:08.105Z,100280.41
2022-11-24T04:11:50.465Z,100284.16
2022-11-24T04:14:23.082Z,100283.72
2022-11-24T04:16:53.077Z,100290.28
2022-11-24T04:19:23.073Z,100285.72
2022-11-24T04:21:53.168Z,100287.13
2022-11-24T04:24:23.284Z,100287.22
2022-11-24T04:26:53.298Z,100288.78
2022-11-24T04:29:25.878Z,100285.41
2022-11-24T04:31:55.892Z,100285.13
2022-11-24T04:34:25.897Z,100286.22
2022-11-24T04:36:55.903Z,100292.97
2022-11-24T04:39:28.016Z,100290.28
2022-11-24T04:41:58.639Z,100297.31
2022-11-24T04:44:31.366Z,100290.97
2022-11-24T04:47:01.472Z,100298.84
2022-11-24T04:49:31.630Z,100300.25
2022-11-24T04:52:02.135Z,100301.44
2022-11-24T04:54:32.387Z,100305.28
2022-11-24T04:57:02.541Z,100300.72
2022-11-24T04:59:35.288Z,100307.50
2022-11-24T05:02:05.399Z,100307.09
2022-11-24T05:04:35.712Z,100306.84
2022-11-24T05:07:06.435Z,100303.94
2022-11-24T05:09:59.677Z,100298.81
2022-11-24T05:12:31.372Z,100314.97
2022-11-24T05:15:05.077Z,100338.69
2022-11-24T05:17:36.982Z,100339.47
2022-11-24T05:20:09.154Z,100348.94
2022-11-24T05:22:39.161Z,100344.78
2022-11-24T05:25:09.483Z,100341.66
2022-11-24T05:27:39.505Z,100353.28
2022-11-24T05:30:13.224Z,100359.66
2022-11-24T05:32:43.691Z,100364.72
2022-11-24T05:35:14.445Z,100368.88
2022-11-24T05:37:44.539Z,100369.25
2022-11-24T05:40:14.614Z,100368.09
2022-11-24T05:42:47.855Z,100372.44
2022-11-24T05:45:23.215Z,100364.78
2022-11-24T05:47:54.075Z,100360.50
2022-11-24T05:50:25.746Z,100369.19
2022-11-24T05:52:55.702Z,100371.31
2022-11-24T05:55:25.576Z,100381.13
2022-11-24T05:58:01.219Z,100383.34
2022-11-24T06:00:35.226Z,100381.63
2022-11-24T06:03:05.568Z,100390.19
2022-11-24T06:05:35.530Z,100389.84
2022-11-24T06:08:05.454Z,100389.50
2022-11-24T06:10:35.355Z,100391.59
2022-11-24T06:13:08.731Z,100385.91
2022-11-24T06:15:41.538Z,100385.00
2022-11-24T06:18:11.491Z,100400.75
2022-11-24T06:21:02.903Z,100402.81
2022-11-24T06:23:33.958Z,100406.97
2022-11-24T06:26:04.027Z,100405.75
2022-11-24T06:28:34.149Z,100407.66
2022-11-24T06:31:08.479Z,100415.03
2022-11-24T06:33:40.542Z,100420.56
2022-11-24T06:36:14.972Z,100417.19
2022-11-24T06:38:44.903Z,100420.31
2022-11-24T06:41:18.080Z,100419.53
2022-11-24T06:43:48.361Z,100423.25
2022-11-24T06:46:21.027Z,100426.81
2022-11-24T06:48:51.042Z,100426.72
2022-11-24T06:51:21.696Z,100433.41
2022-11-24T06:53:51.630Z,100436.34
2022-11-24T06:56:23.148Z,100429.94
2022-11-24T06:58:55.155Z,100431.94
2022-11-24T07:01:29.380Z,100435.13
2022-11-24T07:03:59.965Z,100442.97
2022-11-24T07:06:30.092Z,100442.72
2022-11-24T07:09:00.073Z,100444.13
2022-11-24T07:11:30.190Z,100444.47
2022-11-24T07:14:00.801Z,100448.06
2022-11-24T07:16:33.649Z,100459.97
2022-11-24T07:19:03.968Z,100454.94
2022-11-24T07:21:33.968Z,100456.22
2022-11-24T07:24:03.961Z,100456.09
2022-11-24T07:26:37.412Z,100452.63
2022-11-24T07:29:07.861Z,100458.19
2022-11-24T07:31:40.748Z,100454.09
2022-11-24T07:34:10.936Z,100463.19
2022-11-24T07:36:40.908Z,100468.56
2022-11-24T07:39:11.119Z,100470.09
2022-11-24T07:41:41.099Z,100472.03
2022-11-24T07:44:11.218Z,100465.25
2022-11-24T07:46:43.798Z,100470.88
2022-11-24T07:49:13.801Z,100469.09
2022-11-24T07:51:44.124Z,100481.63
2022-11-24T07:54:14.746Z,100475.88
2022-11-24T07:56:44.889Z,100476.69
2022-11-24T07:59:14.795Z,100477.63
2022-11-24T08:01:48.324Z,100478.38
2022-11-24T08:04:18.286Z,100477.53
2022-11-24T08:06:48.221Z,100482.38
2022-11-24T08:09:18.120Z,100482.34
2022-11-24T08:11:48.118Z,100483.50
2022-11-24T08:14:18.091Z,100479.44
2022-11-24T08:16:50.694Z,100482.97
2022-11-24T08:19:20.668Z,100491.81
2022-11-24T08:21:50.581Z,100483.53
2022-11-24T08:24:20.513Z,100486.94
2022-11-24T08:26:50.572Z,100489.38
2022-11-24T08:29:20.759Z,100482.97
2022-11-24T08:31:53.398Z,100486.47
2022-11-24T08:34:24.020Z,100487.72
2022-11-24T08:36:54.022Z,100492.31
2022-11-24T08:39:24.472Z,100491.97
2022-11-24T08:41:54.476Z,100491.91
2022-11-24T08:44:24.614Z,100493.19
2022-11-24T08:46:57.658Z,100501.69
2022-11-24T08:49:27.677Z,100507.09
2022-11-24T08:52:00.699Z,100511.22
2022-11-24T08:54:31.059Z,100515.56
2022-11-24T08:57:00.993Z,100515.75
2022-11-24T08:59:31.097Z,100512.34
2022-11-24T09:02:03.749Z,100512.97
2022-11-24T09:04:34.232Z,100508.84
2022-11-24T09:07:07.930Z,100512.22
2022-11-24T09:09:38.166Z,100513.63
2022-11-24T09:12:14.353Z,100513.31
2022-11-24T09:14:45.160Z,100523.88
2022-11-24T09:17:17.774Z,100504.72
2022-11-24T09:19:48.106Z,100514.41
2022-11-24T09:22:19.247Z,100503.63
2022-11-24T09:24:49.408Z,100515.94
2022-11-24T09:27:19.543Z,100506.72
2022-11-24T09:29:49.509Z,100514.59
2022-11-24T09:32:22.178Z,100513.63
2022-11-24T09:34:53.332Z,100522.16
2022-11-24T09:37:26.929Z,100525.69
2022-11-24T09:39:59.581Z,100532.16
2022-11-24T09:42:36.970Z,100539.94
2022-11-24T09:45:35.403Z,100544.47
2022-11-24T09:48:18.796Z,100547.03
2022-11-24T09:50:51.319Z,100540.25
2022-11-24T09:53:30.792Z,100545.69
2022-11-24T09:56:03.722Z,100547.34
2022-11-24T09:58:39.897Z,100555.09
2022-11-24T10:01:18.354Z,100549.56
2022-11-24T10:03:53.321Z,100553.75
2022-11-24T10:06:30.668Z,100547.19
2022-11-24T10:09:13.506Z,100548.34
2022-11-24T10:11:53.016Z,100557.88
2022-11-24T10:14:43.906Z,100558.22
2022-11-24T10:17:21.620Z,100570.81
2022-11-24T10:20:00.486Z,100572.38
2022-11-24T10:22:52.959Z,100570.44
2022-11-24T10:25:27.410Z,100572.53
2022-11-24T10:28:02.101Z,100564.75
2022-11-24T10:30:32.750Z,100565.88
2022-11-24T10:33:09.246Z,100568.78
2022-11-24T10:35:47.467Z,100566.19
2022-11-24T10:38:35.064Z,100562.91
2022-11-24T10:41:10.635Z,100561.53
2022-11-24T10:43:43.871Z,100562.84
2022-11-24T10:46:17.931Z,100575.78
2022-11-24T10:48:53.960Z,100556.00
2022-11-24T10:51:49.836Z,100564.34
2022-11-24T10:54:22.052Z,100562.09
2022-11-24T10:56:54.565Z,100558.91
2022-11-24T10:59:33.541Z,100553.91
2022-11-24T11:02:04.366Z,100556.78
2022-11-24T11:04:36.628Z,100559.28
2022-11-24T11:07:20.423Z,100556.06
2022-11-24T11:09:51.328Z,100561.59
2022-11-24T11:12:43.489Z,100559.03
2022-11-24T11:15:26.468Z,100564.44
2022-11-24T11:18:01.120Z,100569.38
2022-11-24T11:20:34.045Z,100572.56
2022-11-24T11:23:17.702Z,100571.88
2022-11-24T11:25:48.494Z,100577.19
2022-11-24T11:28:36.432Z,100567.94
2022-11-24T11:31:17.776Z,100575.28
2022-11-24T11:34:09.509Z,100569.47
2022-11-24T11:36:46.830Z,100568.66
2022-11-24T11:39:29.207Z,100567.94
2022-11-24T11:42:10.908Z,100566.97
2022-11-24T11:44:44.783Z,100561.16
2022-11-24T11:47:22.954Z,100565.59
2022-11-24T11:49:53.269Z,100568.22
2022-11-24T11:52:53.674Z,100559.72
2022-11-24T11:55:39.250Z,100555.72
2022-11-24T11:58:26.851Z,100553.47
2022-11-24T12:01:07.593Z,100556.66
2022-11-24T12:03:59.181Z,100567.41
2022-11-24T12:06:48.806Z,100572.38
2022-11-24T12:09:31.989Z,100572.94
2022-11-24T12:12:22.647Z,100565.59
2022-11-24T12:15:07.348Z,100564.22
2022-11-24T12:17:45.594Z,100566.69
2022-11-24T12:20:41.932Z,100567.66
2022-11-24T12:23:21.705Z,100562.81
2022-11-24T12:26:02.105Z,100563.31
2022-11-24T12:28:48.077Z,100562.06
2022-11-24T12:31:29.030Z,100561.25
2022-11-24T12:34:22.884Z,100562.50
2022-11-24T12:37:14.841Z,100563.94
2022-11-24T12:39:55.539Z,100558.56
2022-11-24T12:42:35.178Z,100564.28
2022-11-24T12:45:19.693Z,100562.00
2022-11-24T12:48:06.114Z,100569.72
2022-11-24T12:50:40.676Z,100573.25
2022-11-24T12:53:16.481Z,100586.41
2022-11-24T12:55:47.443Z,100582.56
2022-11-24T12:58:23.289Z,100584.72
2022-11-24T13:01:14.815Z,100588.13
2022-11-24T13:03:59.994Z,100601.63
2022-11-24T13:06:37.612Z,100598.03
2022-11-24T13:09:12.190Z,100608.88
2022-11-24T13:11:45.152Z,100605.09
2022-11-24T13:14:21.711Z,100605.09
2022-11-24T13:17:28.032Z,100603.59
2022-11-24T13:19:51.082Z,100606.63
2022-11-24T13:22:27.253Z,100602.47
2022-11-24T13:25:16.591Z,100607.75
2022-11-24T13:27:49.224Z,100613.97
2022-11-24T13:31:12.123Z,100609.69
2022-11-24T13:33:45.170Z,100608.28
2022-11-24T13:36:33.868Z,100615.75
2022-11-24T13:39:06.648Z,100607.84
2022-11-24T13:42:10.001Z,100612.97
2022-11-24T13:45:01.880Z,100614.34
2022-11-24T13:47:41.011Z,100620.88
2022-11-24T13:50:26.314Z,100620.50
2022-11-24T13:53:01.974Z,100623.28
2022-11-24T13:55:38.713Z,100631.41
2022-11-24T13:58:32.717Z,100639.59
2022-11-24T14:01:13.642Z,100640.69
2022-11-24T14:04:21.565Z,100639.88
2022-11-24T14:06:45.117Z,100632.25
2022-11-24T14:09:26.996Z,100636.81
2022-11-24T14:12:09.072Z,100636.25
2022-11-24T14:14:39.112Z,100636.94
2022-11-24T14:17:20.600Z,100643.88
2022-11-24T14:19:52.185Z,100657.31
2022-11-24T14:22:27.752Z,100668.41
2022-11-24T14:25:00.679Z,100673.00
2022-11-24T14:27:37.009Z,100663.28
2022-11-24T14:30:20.381Z,100676.47
2022-11-24T14:32:58.157Z,100673.13
2022-11-24T14:35:30.608Z,100677.94
2022-11-24T14:38:05.311Z,100682.38
2022-11-24T14:40:43.984Z,100689.41
2022-11-24T14:43:22.269Z,100692.97
2022-11-24T14:45:54.099Z,100696.88
2022-11-24T14:48:29.037Z,100708.41
2022-11-24T14:51:10.251Z,100700.31
2022-11-24T14:53:44.772Z,100723.31
2022-11-24T14:56:26.622Z,100719.53
2022-11-24T14:58:57.646Z,100720.75
2022-11-24T15:01:36.698Z,100723.31
2022-11-24T15:07:21.968Z,100711.28
2022-11-24T15:09:58.057Z,100715.31
2022-11-24T15:12:31.558Z,100708.47
2022-11-24T15:15:04.836Z,100719.31
2022-11-24T15:17:35.051Z,100724.13
2022-11-24T15:20:11.164Z,100722.53
2022-11-24T15:22:43.771Z,100719.13
2022-11-24T15:25:36.654Z,100726.78
2022-11-24T15:28:06.739Z,100727.47
2022-11-24T15:30:38.150Z,100728.16
2022-11-24T15:33:16.473Z,100728.31
2022-11-24T15:35:47.516Z,100733.69
2022-11-24T15:38:18.108Z,100744.94
2022-11-24T15:40:52.769Z,100744.22
2022-11-24T15:43:30.666Z,100747.69
2022-11-24T15:46:02.073Z,100766.03
2022-11-24T15:48:36.377Z,100760.03
2022-11-24T15:51:08.847Z,100762.66
2022-11-24T15:53:42.228Z,100758.09
2022-11-24T15:56:17.895Z,100756.16
2022-11-24T15:58:48.535Z,100760.66
2022-11-24T16:01:18.824Z,100760.59
2022-11-24T16:03:49.444Z,100760.78
2022-11-24T16:06:25.029Z,100768.69
2022-11-24T16:08:56.057Z,100764.97
2022-11-24T16:11:29.133Z,100757.66
2022-11-24T16:13:59.236Z,100759.13
2022-11-24T16:16:29.309Z,100762.13
2022-11-24T16:18:59.267Z,100760.56
2022-11-24T16:21:29.257Z,100768.56
2022-11-24T16:23:59.280Z,100769.84
2022-11-24T16:26:31.825Z,100767.66
2022-11-24T16:29:01.772Z,100771.25
2022-11-24T16:31:31.807Z,100772.81
2022-11-24T16:34:02.095Z,100774.72
2022-11-24T16:36:32.364Z,100780.66
2022-11-24T16:39:02.694Z,100777.06
2022-11-24T16:41:35.346Z,100775.13
2022-11-24T16:44:05.431Z,100778.84
2022-11-24T16:46:35.552Z,100777.44
2022-11-24T16:49:05.861Z,100781.09
2022-11-24T16:51:35.896Z,100784.41
2022-11-24T16:54:06.587Z,100781.00
2022-11-24T16:56:39.161Z,100783.06
2022-11-24T16:59:09.197Z,100784.16
2022-11-24T17:01:40.253Z,100783.13
2022-11-24T17:04:12.719Z,100783.41
2022-11-24T17:06:43.135Z,100777.34
2022-11-24T17:09:13.420Z,100779.53
2022-11-24T17:11:46.141Z,100785.63
2022-11-24T17:14:16.502Z,100786.91
2022-11-24T17:16:46.605Z,100793.19
2022-11-24T17:19:16.766Z,100795.28
2022-11-24T17:21:46.735Z,100791.69
2022-11-24T17:24:18.188Z,100792.09
2022-11-24T17:26:52.309Z,100795.66
2022-11-24T17:29:23.229Z,100790.59
2022-11-24T17:31:53.314Z,100797.34
2022-11-24T17:34:23.600Z,100795.13
2022-11-24T17:36:53.557Z,100800.03
2022-11-24T17:39:25.190Z,100790.78
2022-11-24T17:41:58.065Z,100796.75
2022-11-24T17:44:28.455Z,100806.06
2022-11-24T17:46:58.967Z,100811.56
2022-11-24T17:49:29.063Z,100811.06
2022-11-24T17:51:59.219Z,100813.31
2022-11-24T17:54:46.054Z,100817.47
2022-11-24T17:57:22.188Z,100824.28
2022-11-24T17:59:53.298Z,100825.38
2022-11-24T18:02:24.475Z,100819.66
2022-11-24T18:04:54.742Z,100818.81
2022-11-24T18:07:24.993Z,100818.69
2022-11-24T18:09:55.087Z,100817.22
2022-11-24T18:12:27.932Z,100816.00
2022-11-24T18:14:58.016Z,100812.66
2022-11-24T18:17:29.091Z,100812.41
2022-11-24T18:19:59.200Z,100807.84
2022-11-24T18:22:57.932Z,100817.22
2022-11-24T18:25:19.331Z,100819.91
2022-11-24T18:27:52.208Z,100815.84
2022-11-24T18:30:22.346Z,100827.34
2022-11-24T18:32:52.365Z,100825.06
2022-11-24T18:35:22.425Z,100832.69
2022-11-24T18:37:52.371Z,100828.66
2022-11-24T18:40:22.481Z,100821.47
2022-11-24T18:42:55.246Z,100830.91
2022-11-24T18:45:27.443Z,100824.69
2022-11-24T18:47:57.568Z,100831.63
2022-11-24T18:50:27.611Z,100839.97
2022-11-24T18:52:57.551Z,100840.56
2022-11-24T18:55:27.551Z,100831.56
2022-11-24T18:58:00.250Z,100825.16
2022-11-24T19:00:30.233Z,100837.25
2022-11-24T19:03:00.505Z,100833.47
2022-11-24T19:05:30.530Z,100841.94
2022-11-24T19:08:00.544Z,100846.25
2022-11-24T19:10:30.692Z,100846.56
2022-11-24T19:13:03.360Z,100851.75
2022-11-24T19:15:35.781Z,100846.94
2022-11-24T19:18:05.754Z,100851.88
2022-11-24T19:20:37.349Z,100852.69
2022-11-24T19:23:07.323Z,100862.28
2022-11-24T19:25:37.285Z,100855.34
2022-11-24T19:28:12.671Z,100854.38
2022-11-24T19:30:45.386Z,100868.25
2022-11-24T19:33:15.391Z,100862.97
2022-11-24T19:35:45.540Z,100861.31
2022-11-24T19:38:15.705Z,100851.75
2022-11-24T19:40:45.644Z,100855.34
2022-11-24T19:43:18.234Z,100862.41
2022-11-24T19:45:48.239Z,100861.31
2022-11-24T19:48:18.282Z,100860.34
2022-11-24T19:50:48.298Z,100860.09
2022-11-24T19:53:18.303Z,100867.84
2022-11-24T19:55:48.236Z,100864.38
2022-11-24T19:58:20.829Z,100874.09
2022-11-24T20:00:50.891Z,100883.47
2022-11-24T20:03:20.882Z,100884.06
2022-11-24T20:05:58.089Z,100887.03
2022-11-24T20:08:30.665Z,100877.88
2022-11-24T20:11:06.117Z,100876.16
2022-11-24T20:13:40.552Z,100878.28
2022-11-24T20:16:12.810Z,100880.47
2022-11-24T20:18:44.586Z,100870.78
2022-11-24T20:21:16.218Z,100870.06
2022-11-24T20:23:48.782Z,100875.47
2022-11-24T20:26:23.040Z,100883.91
2022-11-24T20:28:58.164Z,100894.34
2022-11-24T20:31:30.158Z,100898.53
2022-11-24T20:34:00.721Z,100898.28
2022-11-24T20:36:32.846Z,100901.63
2022-11-24T20:39:04.770Z,100905.41
2022-11-24T20:41:36.532Z,100901.56
2022-11-24T20:44:13.180Z,100902.03
2022-11-24T20:46:44.966Z,100903.44
2022-11-24T20:49:17.417Z,100910.13
2022-11-24T20:51:47.840Z,100907.38
2022-11-24T20:54:19.740Z,100909.72
2022-11-24T20:56:50.715Z,100920.50
2022-11-24T20:59:25.670Z,100917.63
2022-11-24T21:01:59.266Z,100920.97
2022-11-24T21:04:30.125Z,100917.03
2022-11-24T21:07:00.046Z,100912.97
2022-11-24T21:09:30.746Z,100916.19
2022-11-24T21:12:01.371Z,100917.75
2022-11-24T21:14:35.373Z,100907.84
2022-11-24T21:17:05.524Z,100908.31
2022-11-24T21:19:35.427Z,100910.81
2022-11-24T21:22:05.405Z,100910.56
2022-11-24T21:24:35.551Z,100916.69
2022-11-24T21:27:05.676Z,100921.34
2022-11-24T21:29:38.236Z,100921.78
2022-11-24T21:32:08.773Z,100926.69
2022-11-24T21:34:38.776Z,100926.44
2022-11-24T21:37:08.691Z,100923.22
2022-11-24T21:39:38.618Z,100922.38
2022-11-24T21:42:09.275Z,100930.28
2022-11-24T21:44:41.809Z,100932.66
2022-11-24T21:47:11.770Z,100940.56
2022-11-24T21:49:41.789Z,100945.84
2022-11-24T21:52:11.656Z,100938.94
2022-11-24T21:54:41.597Z,100941.69
2022-11-24T21:57:12.413Z,100947.66
2022-11-24T21:59:44.951Z,100947.53
2022-11-24T22:02:15.478Z,100943.22
2022-11-24T22:04:45.555Z,100954.72
2022-11-24T22:07:15.797Z,100951.50
2022-11-24T22:09:46.794Z,100951.03
2022-11-24T22:12:16.737Z,100945.66
2022-11-24T22:14:49.282Z,100955.94
2022-11-24T22:17:19.337Z,100946.81
2022-11-24T22:19:49.298Z,100948.38
2022-11-24T22:22:19.224Z,100950.31
2022-11-24T22:24:49.310Z,100957.84
2022-11-24T22:27:19.592Z,100957.59
2022-11-24T22:29:54.273Z,100963.31
2022-11-24T22:32:24.547Z,100957.34
2022-11-24T22:34:54.543Z,100953.63
2022-11-24T22:37:24.523Z,100961.16
2022-11-24T22:39:54.646Z,100954.94
2022-11-24T22:42:24.758Z,100960.91
2022-11-24T22:44:57.363Z,100967.72
2022-11-24T22:47:27.326Z,100968.81
2022-11-24T22:49:57.272Z,100968.81
2022-11-24T22:52:27.178Z,100970.59
2022-11-24T22:54:57.102Z,100969.75
2022-11-24T22:57:27.042Z,100967.13
2022-11-24T22:59:59.567Z,100975.75
2022-11-24T23:02:29.712Z,100973.94
2022-11-24T23:04:59.686Z,100974.78
2022-11-24T23:07:29.668Z,100970.47
2022-11-24T23:09:59.723Z,100974.06
2022-11-24T23:12:29.736Z,100976.31
2022-11-24T23:15:02.347Z,100975.25
2022-11-24T23:17:32.435Z,100978.72
2022-11-24T23:20:02.463Z,100981.34
2022-11-24T23:22:32.417Z,100981.22
2022-11-24T23:25:02.451Z,100967.09
2022-11-24T23:27:32.489Z,100975.81
2022-11-24T23:30:05.088Z,100974.78
2022-11-24T23:32:35.066Z,100964.25
2022-11-24T23:35:07.501Z,100971.66
2022-11-24T23:38:06.023Z,100964.84
2022-11-24T23:40:32.327Z,100980.50
2022-11-24T23:43:02.244Z,100973.19
2022-11-24T23:45:34.987Z,100972.13
2022-11-24T23:48:05.357Z,100978.25
2022-11-24T23:50:35.301Z,100979.06
2022-11-24T23:53:05.233Z,100968.88
2022-11-24T23:55:35.140Z,100977.75
2022-11-24T23:58:05.297Z,100976.66
